Time;durP1;ratioP1;P1;durP2;ratioP2;P2;SDS_P1;SDS_P2;PMS_P1;PMS_P2;Temp;Humidity;BMP_temperature;BMP_pressure;BME280_temperature;BME280_humidity;BME280_pressure;Samples;Min_cycle;Max_cycle;Signal;HPM_P1;HPM_P2
2023/02/11 00:00:00;;;;;;;2.1;2.1;;;;;;;6.4;100.0;103210;;;;
2023/02/11 00:01:04;;;;;;;2.1;2.1;;;;;;;6.4;100.0;103210;;;;
2023/02/11 00:02:00;;;;;;;2.1;2.1;;;;;;;6.4;100.0;103210;;;;
2023/02/11 00:03:00;;;;;;;2.1;2.1;;;;;;;6.5;100.0;103220;;;;
2023/02/11 00:04:01;;;;;;;2.1;2.1;;;;;;;6.5;100.0;103220;;;;
2023/02/11 00:05:01;;;;;;;2.1;2.1;;;;;;;6.5;100.0;103210;;;;
2023/02/11 00:06:01;;;;;;;2.1;2.1;;;;;;;6.5;100.0;103210;;;;
2023/02/11 00:07:01;;;;;;;2.1;2.1;;;;;;;6.5;100.0;103210;;;;
2023/02/11 00:08:00;;;;;;;2.1;2.1;;;;;;;6.5;100.0;103210;;;;
2023/02/11 00:09:00;;;;;;;2.1;2.1;;;;;;;6.5;100.0;103210;;;;
2023/02/11 00:10:01;;;;;;;2.1;2.1;;;;;;;6.5;100.0;103210;;;;
2023/02/11 00:11:00;;;;;;;2.1;2.1;;;;;;;6.6;100.0;103210;;;;
2023/02/11 00:12:00;;;;;;;2.1;2.1;;;;;;;6.6;100.0;103210;;;;
2023/02/11 00:13:00;;;;;;;2.1;2.1;;;;;;;6.4;100.0;103200;;;;
2023/02/11 00:14:01;;;;;;;2.2;2.1;;;;;;;6.4;100.0;103200;;;;
2023/02/11 00:15:00;;;;;;;2.2;2.1;;;;;;;6.4;100.0;103200;;;;
2023/02/11 00:16:04;;;;;;;2.2;2.1;;;;;;;6.4;100.0;103200;;;;
2023/02/11 00:17:00;;;;;;;2.2;2.1;;;;;;;6.5;100.0;103200;;;;
2023/02/11 00:18:00;;;;;;;2.2;2.1;;;;;;;6.5;100.0;103200;;;;
2023/02/11 00:19:02;;;;;;;2.2;2.1;;;;;;;6.4;100.0;103200;;;;
2023/02/11 00:20:00;;;;;;;2.2;2.1;;;;;;;6.4;100.0;103200;;;;
2023/02/11 00:21:04;;;;;;;2.2;2.1;;;;;;;6.4;100.0;103190;;;;
2023/02/11 00:22:00;;;;;;;2.2;2.1;;;;;;;6.4;100.0;103190;;;;
2023/02/11 00:23:00;;;;;;;2.2;2.1;;;;;;;6.4;100.0;103190;;;;
2023/02/11 00:24:01;;;;;;;2.2;2.1;;;;;;;6.4;100.0;103190;;;;
2023/02/11 00:25:00;;;;;;;2.2;2.1;;;;;;;6.4;100.0;103200;;;;
2023/02/11 00:26:00;;;;;;;2.2;2.1;;;;;;;6.4;100.0;103200;;;;
2023/02/11 00:27:00;;;;;;;2.2;2.1;;;;;;;6.4;100.0;103200;;;;
2023/02/11 00:28:00;;;;;;;2.2;2.1;;;;;;;6.4;100.0;103200;;;;
2023/02/11 00:29:00;;;;;;;2.2;2.1;;;;;;;6.5;100.0;103200;;;;
2023/02/11 00:30:01;;;;;;;2.2;2.1;;;;;;;6.5;100.0;103200;;;;
2023/02/11 00:31:01;;;;;;;2.2;2.1;;;;;;;6.4;100.0;103200;;;;
2023/02/11 00:32:04;;;;;;;2.2;2.1;;;;;;;6.4;100.0;103200;;;;
2023/02/11 00:33:00;;;;;;;2.2;2.1;;;;;;;6.4;100.0;103190;;;;
2023/02/11 00:34:00;;;;;;;2.5;2.4;;;;;;;6.4;100.0;103190;;;;
2023/02/11 00:35:00;;;;;;;2.5;2.4;;;;;;;6.4;100.0;103190;;;;
2023/02/11 00:36:04;;;;;;;2.5;2.4;;;;;;;6.4;100.0;103190;;;;
2023/02/11 00:37:00;;;;;;;2.5;2.4;;;;;;;6.4;100.0;103190;;;;
2023/02/11 00:38:00;;;;;;;2.5;2.4;;;;;;;6.4;100.0;103190;;;;
2023/02/11 00:39:00;;;;;;;2.5;2.4;;;;;;;6.4;100.0;103190;;;;
2023/02/11 00:40:00;;;;;;;2.5;2.4;;;;;;;6.4;100.0;103190;;;;
2023/02/11 00:41:00;;;;;;;2.5;2.4;;;;;;;6.5;100.0;103190;;;;
2023/02/11 00:42:00;;;;;;;2.5;2.4;;;;;;;6.5;100.0;103190;;;;
2023/02/11 00:43:00;;;;;;;2.5;2.4;;;;;;;6.4;100.0;103200;;;;
2023/02/11 00:44:01;;;;;;;2.5;2.4;;;;;;;6.4;100.0;103200;;;;
2023/02/11 00:45:01;;;;;;;2.5;2.4;;;;;;;6.3;100.0;103200;;;;
2023/02/11 00:46:00;;;;;;;2.5;2.4;;;;;;;6.3;100.0;103200;;;;
2023/02/11 00:47:00;;;;;;;2.5;2.4;;;;;;;6.4;100.0;103200;;;;
2023/02/11 00:48:00;;;;;;;2.5;2.4;;;;;;;6.4;100.0;103200;;;;
2023/02/11 00:49:00;;;;;;;2.5;2.4;;;;;;;6.4;100.0;103200;;;;
2023/02/11 00:50:00;;;;;;;2.5;2.4;;;;;;;6.4;100.0;103200;;;;
2023/02/11 00:51:00;;;;;;;2.5;2.4;;;;;;;6.5;100.0;103190;;;;
2023/02/11 00:52:00;;;;;;;2.5;2.4;;;;;;;6.5;100.0;103190;;;;
2023/02/11 00:53:00;;;;;;;2.5;2.4;;;;;;;6.4;100.0;103200;;;;
2023/02/11 00:54:00;;;;;;;1.3;1.3;;;;;;;6.4;100.0;103200;;;;
2023/02/11 00:55:00;;;;;;;1.3;1.3;;;;;;;6.4;100.0;103190;;;;
2023/02/11 00:56:00;;;;;;;1.3;1.3;;;;;;;6.4;100.0;103190;;;;
2023/02/11 00:57:00;;;;;;;1.3;1.3;;;;;;;6.4;100.0;103190;;;;
2023/02/11 00:58:00;;;;;;;1.3;1.3;;;;;;;6.4;100.0;103190;;;;
2023/02/11 00:59:00;;;;;;;1.3;1.3;;;;;;;6.4;100.0;103190;;;;
2023/02/11 01:00:00;;;;;;;1.3;1.3;;;;;;;6.4;100.0;103190;;;;
2023/02/11 01:01:00;;;;;;;1.3;1.3;;;;;;;6.4;100.0;103200;;;;
2023/02/11 01:02:00;;;;;;;1.3;1.3;;;;;;;6.4;100.0;103200;;;;
2023/02/11 01:03:00;;;;;;;1.3;1.3;;;;;;;6.4;100.0;103200;;;;
2023/02/11 01:04:00;;;;;;;1.3;1.3;;;;;;;6.4;100.0;103200;;;;
2023/02/11 01:05:00;;;;;;;1.3;1.3;;;;;;;6.4;100.0;103200;;;;
2023/02/11 01:06:01;;;;;;;1.3;1.3;;;;;;;6.4;100.0;103200;;;;
2023/02/11 01:07:00;;;;;;;1.3;1.3;;;;;;;6.4;100.0;103200;;;;
2023/02/11 01:08:00;;;;;;;1.3;1.3;;;;;;;6.4;100.0;103200;;;;
2023/02/11 01:09:00;;;;;;;1.3;1.3;;;;;;;6.4;100.0;103200;;;;
2023/02/11 01:10:00;;;;;;;1.3;1.3;;;;;;;6.4;100.0;103200;;;;
2023/02/11 01:11:03;;;;;;;1.3;1.3;;;;;;;6.5;100.0;103200;;;;
2023/02/11 01:12:00;;;;;;;1.3;1.3;;;;;;;6.5;100.0;103200;;;;
2023/02/11 01:13:00;;;;;;;1.3;1.3;;;;;;;6.4;100.0;103200;;;;
2023/02/11 01:14:00;;;;;;;1.5;1.5;;;;;;;6.4;100.0;103200;;;;
2023/02/11 01:15:00;;;;;;;1.5;1.5;;;;;;;6.4;100.0;103200;;;;
2023/02/11 01:16:00;;;;;;;1.5;1.5;;;;;;;6.4;100.0;103200;;;;
2023/02/11 01:17:00;;;;;;;1.5;1.5;;;;;;;6.4;100.0;103200;;;;
2023/02/11 01:18:00;;;;;;;1.5;1.5;;;;;;;6.4;100.0;103200;;;;
2023/02/11 01:19:00;;;;;;;1.5;1.5;;;;;;;6.4;100.0;103200;;;;
2023/02/11 01:20:10;;;;;;;1.5;1.5;;;;;;;6.4;100.0;103200;;;;
2023/02/11 01:21:00;;;;;;;1.5;1.5;;;;;;;6.4;100.0;103210;;;;
2023/02/11 01:22:00;;;;;;;1.5;1.5;;;;;;;6.4;100.0;103210;;;;
2023/02/11 01:23:00;;;;;;;1.5;1.5;;;;;;;6.5;100.0;103210;;;;
2023/02/11 01:24:00;;;;;;;1.5;1.5;;;;;;;6.5;100.0;103210;;;;
2023/02/11 01:25:00;;;;;;;1.5;1.5;;;;;;;6.4;100.0;103220;;;;
2023/02/11 01:26:00;;;;;;;1.5;1.5;;;;;;;6.4;100.0;103220;;;;
2023/02/11 01:27:00;;;;;;;1.5;1.5;;;;;;;6.5;100.0;103210;;;;
2023/02/11 01:28:00;;;;;;;1.5;1.5;;;;;;;6.5;100.0;103210;;;;
2023/02/11 01:29:00;;;;;;;1.5;1.5;;;;;;;6.4;100.0;103210;;;;
2023/02/11 01:30:00;;;;;;;1.5;1.5;;;;;;;6.4;100.0;103210;;;;
2023/02/11 01:31:01;;;;;;;1.5;1.5;;;;;;;6.4;100.0;103210;;;;
2023/02/11 01:32:00;;;;;;;1.5;1.5;;;;;;;6.4;100.0;103210;;;;
2023/02/11 01:33:00;;;;;;;1.5;1.5;;;;;;;6.5;100.0;103200;;;;
2023/02/11 01:34:00;;;;;;;1.5;1.5;;;;;;;6.5;100.0;103200;;;;
2023/02/11 01:35:00;;;;;;;1.5;1.5;;;;;;;6.4;100.0;103190;;;;
2023/02/11 01:36:01;;;;;;;1.5;1.5;;;;;;;6.4;100.0;103190;;;;
2023/02/11 01:37:00;;;;;;;1.5;1.5;;;;;;;6.3;100.0;103190;;;;
2023/02/11 01:38:00;;;;;;;1.5;1.5;;;;;;;6.3;100.0;103190;;;;
2023/02/11 01:39:00;;;;;;;1.5;1.5;;;;;;;6.4;100.0;103190;;;;
2023/02/11 01:40:00;;;;;;;1.5;1.5;;;;;;;6.4;100.0;103190;;;;
2023/02/11 01:41:01;;;;;;;1.5;1.5;;;;;;;6.4;100.0;103190;;;;
2023/02/11 01:42:01;;;;;;;1.5;1.5;;;;;;;6.4;100.0;103190;;;;
2023/02/11 01:43:00;;;;;;;1.5;1.5;;;;;;;6.4;100.0;103170;;;;
2023/02/11 01:44:10;;;;;;;1.5;1.5;;;;;;;6.4;100.0;103170;;;;
2023/02/11 01:45:01;;;;;;;1.5;1.5;;;;;;;6.4;100.0;103160;;;;
2023/02/11 01:46:03;;;;;;;1.5;1.5;;;;;;;6.4;100.0;103160;;;;
2023/02/11 01:47:03;;;;;;;1.5;1.5;;;;;;;6.4;100.0;103150;;;;
2023/02/11 01:48:01;;;;;;;1.5;1.5;;;;;;;6.4;100.0;103150;;;;
2023/02/11 01:49:03;;;;;;;1.5;1.5;;;;;;;6.4;100.0;103150;;;;
2023/02/11 01:50:00;;;;;;;1.5;1.5;;;;;;;6.4;100.0;103150;;;;
2023/02/11 01:51:03;;;;;;;1.5;1.5;;;;;;;6.4;100.0;103150;;;;
2023/02/11 01:52:02;;;;;;;1.5;1.5;;;;;;;6.4;100.0;103150;;;;
2023/02/11 01:57:20;;;;;;;1.4;1.4;;;;;;;6.4;100.0;103150;;;;
2023/02/11 01:58:03;;;;;;;1.4;1.4;;;;;;;6.4;100.0;103160;;;;
2023/02/11 01:59:04;;;;;;;1.4;1.4;;;;;;;6.4;100.0;103160;;;;
2023/02/11 02:00:06;;;;;;;1.4;1.4;;;;;;;6.4;100.0;103160;;;;
2023/02/11 02:01:02;;;;;;;1.4;1.4;;;;;;;6.3;100.0;103150;;;;
2023/02/11 02:02:04;;;;;;;1.4;1.4;;;;;;;6.3;100.0;103150;;;;
2023/02/11 02:03:00;;;;;;;1.4;1.4;;;;;;;6.3;100.0;103150;;;;
2023/02/11 02:04:02;;;;;;;1.4;1.4;;;;;;;6.3;100.0;103150;;;;
2023/02/11 02:05:05;;;;;;;1.4;1.4;;;;;;;6.3;100.0;103150;;;;
2023/02/11 02:06:05;;;;;;;1.4;1.4;;;;;;;6.3;100.0;103150;;;;
2023/02/11 02:07:05;;;;;;;1.4;1.4;;;;;;;6.2;100.0;103150;;;;
2023/02/11 02:08:10;;;;;;;1.4;1.4;;;;;;;6.2;100.0;103150;;;;
2023/02/11 02:09:10;;;;;;;1.4;1.4;;;;;;;6.2;100.0;103160;;;;
2023/02/11 02:10:06;;;;;;;1.4;1.4;;;;;;;6.2;100.0;103160;;;;
2023/02/11 02:11:00;;;;;;;1.4;1.4;;;;;;;6.3;100.0;103160;;;;
2023/02/11 02:12:00;;;;;;;1.4;1.4;;;;;;;6.3;100.0;103160;;;;
2023/02/11 02:13:00;;;;;;;1.5;1.5;;;;;;;6.3;100.0;103170;;;;
2023/02/11 02:14:00;;;;;;;1.5;1.5;;;;;;;6.3;100.0;103170;;;;
2023/02/11 02:15:10;;;;;;;1.5;1.5;;;;;;;6.3;100.0;103180;;;;
2023/02/11 02:16:02;;;;;;;1.5;1.5;;;;;;;6.3;100.0;103180;;;;
2023/02/11 02:17:00;;;;;;;1.5;1.5;;;;;;;6.4;100.0;103180;;;;
2023/02/11 02:18:10;;;;;;;1.5;1.5;;;;;;;6.4;100.0;103180;;;;
2023/02/11 02:19:01;;;;;;;1.5;1.5;;;;;;;6.3;100.0;103180;;;;
2023/02/11 02:20:09;;;;;;;1.5;1.5;;;;;;;6.3;100.0;103180;;;;
2023/02/11 02:21:03;;;;;;;1.5;1.5;;;;;;;6.3;100.0;103180;;;;
2023/02/11 02:22:12;;;;;;;1.5;1.5;;;;;;;6.3;100.0;103180;;;;
2023/02/11 02:23:01;;;;;;;1.5;1.5;;;;;;;6.4;100.0;103170;;;;
2023/02/11 02:24:09;;;;;;;1.5;1.5;;;;;;;6.4;100.0;103170;;;;
2023/02/11 02:25:00;;;;;;;1.5;1.5;;;;;;;6.3;100.0;103170;;;;
2023/02/11 02:26:10;;;;;;;1.5;1.5;;;;;;;6.3;100.0;103170;;;;
2023/02/11 02:27:07;;;;;;;1.5;1.5;;;;;;;6.3;100.0;103160;;;;
2023/02/11 02:28:11;;;;;;;1.5;1.5;;;;;;;6.3;100.0;103160;;;;
2023/02/11 02:29:10;;;;;;;1.5;1.5;;;;;;;6.3;100.0;103170;;;;
2023/02/11 02:30:10;;;;;;;1.5;1.5;;;;;;;6.3;100.0;103170;;;;
2023/02/11 02:31:03;;;;;;;1.5;1.5;;;;;;;6.3;100.0;103170;;;;
2023/02/11 02:32:10;;;;;;;1.5;1.5;;;;;;;6.3;100.0;103170;;;;
2023/02/11 02:33:15;;;;;;;1.8;1.8;;;;;;;6.4;100.0;103170;;;;
2023/02/11 02:34:05;;;;;;;1.8;1.8;;;;;;;6.4;100.0;103170;;;;
2023/02/11 02:35:08;;;;;;;1.8;1.8;;;;;;;6.4;100.0;103160;;;;
2023/02/11 02:36:10;;;;;;;1.8;1.8;;;;;;;6.4;100.0;103160;;;;
2023/02/11 02:37:07;;;;;;;1.8;1.8;;;;;;;6.3;100.0;103150;;;;
2023/02/11 02:38:05;;;;;;;1.8;1.8;;;;;;;6.3;100.0;103150;;;;
2023/02/11 02:39:05;;;;;;;1.8;1.8;;;;;;;6.3;100.0;103150;;;;
2023/02/11 02:40:03;;;;;;;1.8;1.8;;;;;;;6.3;100.0;103150;;;;
2023/02/11 02:41:05;;;;;;;1.8;1.8;;;;;;;6.4;100.0;103150;;;;
2023/02/11 02:42:00;;;;;;;1.8;1.8;;;;;;;6.4;100.0;103150;;;;
2023/02/11 02:43:01;;;;;;;1.8;1.8;;;;;;;6.3;100.0;103150;;;;
2023/02/11 02:44:00;;;;;;;1.8;1.8;;;;;;;6.3;100.0;103150;;;;
2023/02/11 02:45:00;;;;;;;1.8;1.8;;;;;;;6.2;100.0;103150;;;;
2023/02/11 02:46:10;;;;;;;1.8;1.8;;;;;;;6.2;100.0;103150;;;;
2023/02/11 02:47:00;;;;;;;1.8;1.8;;;;;;;6.3;100.0;103150;;;;
2023/02/11 02:48:00;;;;;;;1.8;1.8;;;;;;;6.3;100.0;103150;;;;
2023/02/11 02:49:00;;;;;;;1.8;1.8;;;;;;;6.3;100.0;103150;;;;
2023/02/11 02:50:00;;;;;;;1.8;1.8;;;;;;;6.3;100.0;103150;;;;
2023/02/11 02:51:00;;;;;;;1.8;1.8;;;;;;;6.3;100.0;103160;;;;
2023/02/11 02:52:10;;;;;;;1.8;1.8;;;;;;;6.3;100.0;103160;;;;
2023/02/11 02:53:10;;;;;;;2.0;1.9;;;;;;;6.3;100.0;103160;;;;
2023/02/11 02:54:09;;;;;;;2.0;1.9;;;;;;;6.3;100.0;103160;;;;
2023/02/11 02:55:03;;;;;;;2.0;1.9;;;;;;;6.2;100.0;103160;;;;
2023/02/11 02:56:05;;;;;;;2.0;1.9;;;;;;;6.2;100.0;103160;;;;
2023/02/11 02:57:10;;;;;;;2.0;1.9;;;;;;;6.2;100.0;103160;;;;
2023/02/11 02:58:00;;;;;;;2.0;1.9;;;;;;;6.2;100.0;103160;;;;
2023/02/11 02:59:03;;;;;;;2.0;1.9;;;;;;;6.2;100.0;103160;;;;
2023/02/11 03:00:10;;;;;;;2.0;1.9;;;;;;;6.2;100.0;103160;;;;
2023/02/11 03:01:07;;;;;;;2.0;1.9;;;;;;;6.3;100.0;103160;;;;
2023/02/11 03:02:10;;;;;;;2.0;1.9;;;;;;;6.3;100.0;103160;;;;
2023/02/11 03:03:01;;;;;;;2.0;1.9;;;;;;;6.3;100.0;103160;;;;
2023/02/11 03:04:06;;;;;;;2.0;1.9;;;;;;;6.3;100.0;103160;;;;
2023/02/11 03:05:07;;;;;;;2.0;1.9;;;;;;;6.2;100.0;103160;;;;
2023/02/11 03:06:04;;;;;;;2.0;1.9;;;;;;;6.2;100.0;103160;;;;
2023/02/11 03:07:00;;;;;;;2.0;1.9;;;;;;;6.3;100.0;103150;;;;
2023/02/11 03:08:08;;;;;;;2.0;1.9;;;;;;;6.3;100.0;103150;;;;
2023/02/11 03:09:06;;;;;;;2.0;1.9;;;;;;;6.2;100.0;103150;;;;
2023/02/11 03:10:00;;;;;;;2.0;1.9;;;;;;;6.2;100.0;103150;;;;
2023/02/11 03:11:01;;;;;;;2.0;1.9;;;;;;;6.2;100.0;103150;;;;
2023/02/11 03:12:01;;;;;;;2.0;1.9;;;;;;;6.2;100.0;103150;;;;
2023/02/11 03:13:02;;;;;;;1.8;1.8;;;;;;;6.1;100.0;103160;;;;
2023/02/11 03:14:02;;;;;;;1.8;1.8;;;;;;;6.1;100.0;103160;;;;
2023/02/11 03:15:01;;;;;;;1.8;1.8;;;;;;;6.2;100.0;103150;;;;
2023/02/11 03:16:06;;;;;;;1.8;1.8;;;;;;;6.2;100.0;103150;;;;
2023/02/11 03:17:02;;;;;;;1.8;1.8;;;;;;;6.2;100.0;103150;;;;
2023/02/11 03:18:02;;;;;;;1.8;1.8;;;;;;;6.2;100.0;103150;;;;
2023/02/11 03:19:04;;;;;;;1.8;1.8;;;;;;;6.2;100.0;103150;;;;
2023/02/11 03:20:01;;;;;;;1.8;1.8;;;;;;;6.2;100.0;103150;;;;
2023/02/11 03:21:01;;;;;;;1.8;1.8;;;;;;;6.2;100.0;103140;;;;
2023/02/11 03:22:02;;;;;;;1.8;1.8;;;;;;;6.2;100.0;103140;;;;
2023/02/11 03:23:05;;;;;;;1.8;1.8;;;;;;;6.2;100.0;103140;;;;
2023/02/11 03:24:04;;;;;;;1.8;1.8;;;;;;;6.2;100.0;103140;;;;
2023/02/11 03:25:01;;;;;;;1.8;1.8;;;;;;;6.2;100.0;103140;;;;
2023/02/11 03:26:07;;;;;;;1.8;1.8;;;;;;;6.2;100.0;103140;;;;
2023/02/11 03:27:05;;;;;;;1.8;1.8;;;;;;;6.2;100.0;103140;;;;
2023/02/11 03:28:06;;;;;;;1.8;1.8;;;;;;;6.2;100.0;103140;;;;
2023/02/11 03:29:05;;;;;;;1.8;1.8;;;;;;;6.2;100.0;103150;;;;
2023/02/11 03:30:04;;;;;;;1.8;1.8;;;;;;;6.2;100.0;103150;;;;
2023/02/11 03:31:08;;;;;;;1.8;1.8;;;;;;;6.2;100.0;103150;;;;
2023/02/11 03:32:00;;;;;;;1.8;1.8;;;;;;;6.2;100.0;103150;;;;
2023/02/11 03:33:05;;;;;;;1.8;1.8;;;;;;;6.1;100.0;103150;;;;
2023/02/11 03:34:03;;;;;;;1.8;1.8;;;;;;;6.1;100.0;103150;;;;
2023/02/11 03:35:00;;;;;;;1.8;1.8;;;;;;;6.1;100.0;103150;;;;
2023/02/11 03:36:03;;;;;;;1.8;1.8;;;;;;;6.1;100.0;103150;;;;
2023/02/11 03:37:05;;;;;;;1.8;1.8;;;;;;;6.1;100.0;103150;;;;
2023/02/11 03:38:04;;;;;;;1.8;1.8;;;;;;;6.1;100.0;103150;;;;
2023/02/11 03:39:00;;;;;;;1.8;1.8;;;;;;;6.1;100.0;103150;;;;
2023/02/11 03:40:00;;;;;;;1.8;1.8;;;;;;;6.1;100.0;103150;;;;
2023/02/11 03:41:01;;;;;;;1.8;1.8;;;;;;;6.2;100.0;103150;;;;
2023/02/11 03:42:01;;;;;;;1.8;1.8;;;;;;;6.2;100.0;103150;;;;
2023/02/11 03:43:04;;;;;;;1.8;1.8;;;;;;;6.2;100.0;103150;;;;
2023/02/11 03:44:01;;;;;;;1.8;1.8;;;;;;;6.2;100.0;103150;;;;
2023/02/11 03:45:04;;;;;;;1.8;1.8;;;;;;;6.1;100.0;103150;;;;
2023/02/11 03:46:01;;;;;;;1.8;1.8;;;;;;;6.1;100.0;103150;;;;
2023/02/11 03:47:02;;;;;;;1.8;1.8;;;;;;;6.1;100.0;103150;;;;
2023/02/11 03:48:03;;;;;;;1.8;1.8;;;;;;;6.1;100.0;103150;;;;
2023/02/11 03:49:03;;;;;;;1.8;1.8;;;;;;;6.1;100.0;103140;;;;
2023/02/11 03:50:02;;;;;;;1.8;1.8;;;;;;;6.1;100.0;103140;;;;
2023/02/11 03:51:01;;;;;;;1.8;1.8;;;;;;;6.1;100.0;103130;;;;
2023/02/11 03:52:02;;;;;;;1.8;1.8;;;;;;;6.1;100.0;103130;;;;
2023/02/11 03:53:01;;;;;;;2.8;2.7;;;;;;;6.1;100.0;103140;;;;
2023/02/11 03:54:02;;;;;;;2.8;2.7;;;;;;;6.1;100.0;103140;;;;
2023/02/11 03:55:02;;;;;;;2.8;2.7;;;;;;;6.1;100.0;103140;;;;
2023/02/11 03:56:04;;;;;;;2.8;2.7;;;;;;;6.1;100.0;103140;;;;
2023/02/11 03:57:01;;;;;;;2.8;2.7;;;;;;;6.1;100.0;103130;;;;
2023/02/11 03:58:00;;;;;;;2.8;2.7;;;;;;;6.1;100.0;103130;;;;
2023/02/11 03:59:00;;;;;;;2.8;2.7;;;;;;;6.0;100.0;103130;;;;
2023/02/11 04:00:00;;;;;;;2.8;2.7;;;;;;;6.0;100.0;103130;;;;
2023/02/11 04:01:01;;;;;;;2.8;2.7;;;;;;;6.0;100.0;103140;;;;
2023/02/11 04:02:00;;;;;;;2.8;2.7;;;;;;;6.0;100.0;103140;;;;
2023/02/11 04:03:00;;;;;;;2.8;2.7;;;;;;;6.1;100.0;103130;;;;
2023/02/11 04:04:00;;;;;;;2.8;2.7;;;;;;;6.1;100.0;103130;;;;
2023/02/11 04:05:00;;;;;;;2.8;2.7;;;;;;;6.2;100.0;103130;;;;
2023/02/11 04:06:00;;;;;;;2.8;2.7;;;;;;;6.2;100.0;103130;;;;
2023/02/11 04:07:00;;;;;;;2.8;2.7;;;;;;;6.0;100.0;103120;;;;
2023/02/11 04:08:00;;;;;;;2.8;2.7;;;;;;;6.0;100.0;103120;;;;
2023/02/11 04:09:00;;;;;;;2.8;2.7;;;;;;;6.1;100.0;103110;;;;
2023/02/11 04:10:00;;;;;;;2.8;2.7;;;;;;;6.1;100.0;103110;;;;
2023/02/11 04:11:00;;;;;;;2.8;2.7;;;;;;;6.0;100.0;103110;;;;
2023/02/11 04:12:00;;;;;;;2.8;2.7;;;;;;;6.0;100.0;103110;;;;
2023/02/11 04:13:00;;;;;;;2.0;2.0;;;;;;;6.1;100.0;103100;;;;
2023/02/11 04:14:00;;;;;;;2.0;2.0;;;;;;;6.1;100.0;103100;;;;
2023/02/11 04:15:00;;;;;;;2.0;2.0;;;;;;;6.1;100.0;103100;;;;
2023/02/11 04:16:00;;;;;;;2.0;2.0;;;;;;;6.1;100.0;103100;;;;
2023/02/11 04:17:00;;;;;;;2.0;2.0;;;;;;;6.0;100.0;103100;;;;
2023/02/11 04:18:02;;;;;;;2.0;2.0;;;;;;;6.0;100.0;103100;;;;
2023/02/11 04:19:00;;;;;;;2.0;2.0;;;;;;;6.1;100.0;103110;;;;
2023/02/11 04:20:00;;;;;;;2.0;2.0;;;;;;;6.1;100.0;103110;;;;
2023/02/11 04:21:00;;;;;;;2.0;2.0;;;;;;;6.0;100.0;103110;;;;
2023/02/11 04:22:00;;;;;;;2.0;2.0;;;;;;;6.0;100.0;103110;;;;
2023/02/11 04:23:00;;;;;;;2.0;2.0;;;;;;;6.0;100.0;103110;;;;
2023/02/11 04:24:00;;;;;;;2.0;2.0;;;;;;;6.0;100.0;103110;;;;
2023/02/11 04:25:00;;;;;;;2.0;2.0;;;;;;;5.9;100.0;103110;;;;
2023/02/11 04:26:00;;;;;;;2.0;2.0;;;;;;;5.9;100.0;103110;;;;
2023/02/11 04:27:00;;;;;;;2.0;2.0;;;;;;;6.0;100.0;103110;;;;
2023/02/11 04:28:00;;;;;;;2.0;2.0;;;;;;;6.0;100.0;103110;;;;
2023/02/11 04:29:00;;;;;;;2.0;2.0;;;;;;;6.0;100.0;103110;;;;
2023/02/11 04:30:00;;;;;;;2.0;2.0;;;;;;;6.0;100.0;103110;;;;
2023/02/11 04:31:00;;;;;;;2.0;2.0;;;;;;;6.0;100.0;103120;;;;
2023/02/11 04:32:00;;;;;;;2.0;2.0;;;;;;;6.0;100.0;103120;;;;
2023/02/11 04:33:00;;;;;;;2.4;2.3;;;;;;;6.0;100.0;103120;;;;
2023/02/11 04:34:00;;;;;;;2.4;2.3;;;;;;;6.0;100.0;103120;;;;
2023/02/11 04:35:01;;;;;;;2.4;2.3;;;;;;;6.0;100.0;103120;;;;
2023/02/11 04:36:00;;;;;;;2.4;2.3;;;;;;;6.0;100.0;103120;;;;
2023/02/11 04:37:00;;;;;;;2.4;2.3;;;;;;;6.0;100.0;103120;;;;
2023/02/11 04:38:00;;;;;;;2.4;2.3;;;;;;;6.0;100.0;103120;;;;
2023/02/11 04:39:00;;;;;;;2.4;2.3;;;;;;;6.0;100.0;103130;;;;
2023/02/11 04:40:00;;;;;;;2.4;2.3;;;;;;;6.0;100.0;103130;;;;
2023/02/11 04:41:00;;;;;;;2.4;2.3;;;;;;;6.1;100.0;103130;;;;
2023/02/11 04:42:00;;;;;;;2.4;2.3;;;;;;;6.1;100.0;103130;;;;
2023/02/11 04:43:00;;;;;;;2.4;2.3;;;;;;;6.1;100.0;103140;;;;
2023/02/11 04:44:00;;;;;;;2.4;2.3;;;;;;;6.1;100.0;103140;;;;
2023/02/11 04:45:00;;;;;;;2.4;2.3;;;;;;;6.1;100.0;103140;;;;
2023/02/11 04:46:00;;;;;;;2.4;2.3;;;;;;;6.1;100.0;103140;;;;
2023/02/11 04:47:00;;;;;;;2.4;2.3;;;;;;;6.1;100.0;103140;;;;
2023/02/11 04:48:01;;;;;;;2.4;2.3;;;;;;;6.1;100.0;103140;;;;
2023/02/11 04:49:00;;;;;;;2.4;2.3;;;;;;;6.1;100.0;103140;;;;
2023/02/11 04:50:00;;;;;;;2.4;2.3;;;;;;;6.1;100.0;103140;;;;
2023/02/11 04:51:00;;;;;;;2.4;2.3;;;;;;;6.1;100.0;103140;;;;
2023/02/11 04:52:00;;;;;;;2.4;2.3;;;;;;;6.1;100.0;103140;;;;
2023/02/11 04:53:00;;;;;;;1.6;1.6;;;;;;;6.2;100.0;103140;;;;
2023/02/11 04:54:00;;;;;;;1.6;1.6;;;;;;;6.2;100.0;103140;;;;
2023/02/11 04:55:00;;;;;;;1.6;1.6;;;;;;;6.1;100.0;103140;;;;
2023/02/11 04:56:00;;;;;;;1.6;1.6;;;;;;;6.1;100.0;103140;;;;
2023/02/11 04:57:00;;;;;;;1.6;1.6;;;;;;;6.2;100.0;103130;;;;
2023/02/11 04:58:00;;;;;;;1.6;1.6;;;;;;;6.2;100.0;103130;;;;
2023/02/11 04:59:00;;;;;;;1.6;1.6;;;;;;;6.2;100.0;103130;;;;
2023/02/11 05:00:00;;;;;;;1.6;1.6;;;;;;;6.2;100.0;103130;;;;
2023/02/11 05:01:08;;;;;;;1.6;1.6;;;;;;;6.2;100.0;103130;;;;
2023/02/11 05:02:00;;;;;;;1.6;1.6;;;;;;;6.2;100.0;103130;;;;
2023/02/11 05:03:00;;;;;;;1.6;1.6;;;;;;;6.2;100.0;103130;;;;
2023/02/11 05:04:00;;;;;;;1.6;1.6;;;;;;;6.2;100.0;103130;;;;
2023/02/11 05:05:00;;;;;;;1.6;1.6;;;;;;;6.2;100.0;103130;;;;
2023/02/11 05:06:00;;;;;;;1.6;1.6;;;;;;;6.2;100.0;103130;;;;
2023/02/11 05:07:00;;;;;;;1.6;1.6;;;;;;;6.2;100.0;103140;;;;
2023/02/11 05:08:00;;;;;;;1.6;1.6;;;;;;;6.2;100.0;103140;;;;
2023/02/11 05:09:00;;;;;;;1.6;1.6;;;;;;;6.1;100.0;103140;;;;
2023/02/11 05:10:00;;;;;;;1.6;1.6;;;;;;;6.1;100.0;103140;;;;
2023/02/11 05:11:01;;;;;;;1.6;1.6;;;;;;;6.2;100.0;103140;;;;
2023/02/11 05:12:00;;;;;;;1.6;1.6;;;;;;;6.2;100.0;103140;;;;
2023/02/11 05:13:00;;;;;;;1.5;1.5;;;;;;;6.2;100.0;103140;;;;
2023/02/11 05:14:00;;;;;;;1.5;1.5;;;;;;;6.2;100.0;103140;;;;
2023/02/11 05:15:00;;;;;;;1.5;1.5;;;;;;;6.2;100.0;103140;;;;
2023/02/11 05:16:00;;;;;;;1.5;1.5;;;;;;;6.2;100.0;103140;;;;
2023/02/11 05:17:00;;;;;;;1.5;1.5;;;;;;;6.1;100.0;103140;;;;
2023/02/11 05:18:00;;;;;;;1.5;1.5;;;;;;;6.1;100.0;103140;;;;
2023/02/11 05:19:00;;;;;;;1.5;1.5;;;;;;;6.1;100.0;103130;;;;
2023/02/11 05:20:00;;;;;;;1.5;1.5;;;;;;;6.1;100.0;103130;;;;
2023/02/11 05:21:04;;;;;;;1.5;1.5;;;;;;;6.2;100.0;103130;;;;
2023/02/11 05:22:03;;;;;;;1.5;1.5;;;;;;;6.2;100.0;103130;;;;
2023/02/11 05:23:00;;;;;;;1.5;1.5;;;;;;;6.2;100.0;103130;;;;
2023/02/11 05:24:00;;;;;;;1.5;1.5;;;;;;;6.2;100.0;103130;;;;
2023/02/11 05:25:00;;;;;;;1.5;1.5;;;;;;;6.2;100.0;103130;;;;
2023/02/11 05:26:00;;;;;;;1.5;1.5;;;;;;;6.2;100.0;103130;;;;
2023/02/11 05:27:00;;;;;;;1.5;1.5;;;;;;;6.2;100.0;103130;;;;
2023/02/11 05:28:00;;;;;;;1.5;1.5;;;;;;;6.2;100.0;103130;;;;
2023/02/11 05:29:00;;;;;;;1.5;1.5;;;;;;;6.2;100.0;103130;;;;
2023/02/11 05:30:00;;;;;;;1.5;1.5;;;;;;;6.2;100.0;103130;;;;
2023/02/11 05:31:00;;;;;;;1.5;1.5;;;;;;;6.2;100.0;103120;;;;
2023/02/11 05:32:00;;;;;;;1.5;1.5;;;;;;;6.2;100.0;103120;;;;
2023/02/11 05:33:00;;;;;;;1.4;1.4;;;;;;;6.2;100.0;103120;;;;
2023/02/11 05:34:02;;;;;;;1.4;1.4;;;;;;;6.2;100.0;103120;;;;
2023/02/11 05:35:00;;;;;;;1.4;1.4;;;;;;;6.3;100.0;103130;;;;
2023/02/11 05:36:01;;;;;;;1.4;1.4;;;;;;;6.3;100.0;103130;;;;
2023/02/11 05:37:00;;;;;;;1.4;1.4;;;;;;;6.2;100.0;103120;;;;
2023/02/11 05:38:00;;;;;;;1.4;1.4;;;;;;;6.2;100.0;103120;;;;
2023/02/11 05:39:00;;;;;;;1.4;1.4;;;;;;;6.3;100.0;103130;;;;
2023/02/11 05:40:00;;;;;;;1.4;1.4;;;;;;;6.3;100.0;103130;;;;
2023/02/11 05:41:00;;;;;;;1.4;1.4;;;;;;;6.3;100.0;103130;;;;
2023/02/11 05:42:00;;;;;;;1.4;1.4;;;;;;;6.3;100.0;103130;;;;
2023/02/11 05:43:00;;;;;;;1.4;1.4;;;;;;;6.3;100.0;103120;;;;
2023/02/11 05:44:00;;;;;;;1.4;1.4;;;;;;;6.3;100.0;103120;;;;
2023/02/11 05:45:00;;;;;;;1.4;1.4;;;;;;;6.3;100.0;103130;;;;
2023/02/11 05:46:00;;;;;;;1.4;1.4;;;;;;;6.3;100.0;103130;;;;
2023/02/11 05:47:00;;;;;;;1.4;1.4;;;;;;;6.2;100.0;103120;;;;
2023/02/11 05:48:00;;;;;;;1.4;1.4;;;;;;;6.2;100.0;103120;;;;
2023/02/11 05:49:00;;;;;;;1.4;1.4;;;;;;;6.2;100.0;103130;;;;
2023/02/11 05:50:00;;;;;;;1.4;1.4;;;;;;;6.2;100.0;103130;;;;
2023/02/11 05:51:00;;;;;;;1.4;1.4;;;;;;;6.3;100.0;103130;;;;
2023/02/11 05:52:00;;;;;;;1.7;1.7;;;;;;;6.3;100.0;103130;;;;
2023/02/11 05:53:00;;;;;;;1.7;1.7;;;;;;;6.3;100.0;103120;;;;
2023/02/11 05:54:00;;;;;;;1.7;1.7;;;;;;;6.3;100.0;103120;;;;
2023/02/11 05:55:00;;;;;;;1.7;1.7;;;;;;;6.3;100.0;103130;;;;
2023/02/11 05:56:00;;;;;;;1.7;1.7;;;;;;;6.3;100.0;103130;;;;
2023/02/11 05:57:00;;;;;;;1.7;1.7;;;;;;;6.2;100.0;103130;;;;
2023/02/11 05:58:00;;;;;;;1.7;1.7;;;;;;;6.2;100.0;103130;;;;
2023/02/11 05:59:00;;;;;;;1.7;1.7;;;;;;;6.3;100.0;103130;;;;
2023/02/11 06:00:00;;;;;;;1.7;1.7;;;;;;;6.3;100.0;103130;;;;
2023/02/11 06:01:00;;;;;;;1.7;1.7;;;;;;;6.3;100.0;103130;;;;
2023/02/11 06:02:01;;;;;;;1.7;1.7;;;;;;;6.3;100.0;103130;;;;
2023/02/11 06:03:00;;;;;;;1.7;1.7;;;;;;;6.3;100.0;103130;;;;
2023/02/11 06:04:00;;;;;;;1.7;1.7;;;;;;;6.3;100.0;103130;;;;
2023/02/11 06:05:00;;;;;;;1.7;1.7;;;;;;;6.3;100.0;103130;;;;
2023/02/11 06:06:00;;;;;;;1.7;1.7;;;;;;;6.3;100.0;103130;;;;
2023/02/11 06:07:00;;;;;;;1.7;1.7;;;;;;;6.3;100.0;103120;;;;
2023/02/11 06:08:00;;;;;;;1.7;1.7;;;;;;;6.3;100.0;103120;;;;
2023/02/11 06:09:00;;;;;;;1.7;1.7;;;;;;;6.3;100.0;103120;;;;
2023/02/11 06:10:00;;;;;;;1.7;1.7;;;;;;;6.3;100.0;103120;;;;
2023/02/11 06:11:00;;;;;;;1.7;1.7;;;;;;;6.3;100.0;103130;;;;
2023/02/11 06:12:00;;;;;;;1.6;1.6;;;;;;;6.3;100.0;103130;;;;
2023/02/11 06:13:00;;;;;;;1.6;1.6;;;;;;;6.3;100.0;103130;;;;
2023/02/11 06:14:00;;;;;;;1.6;1.6;;;;;;;6.3;100.0;103130;;;;
2023/02/11 06:15:00;;;;;;;1.6;1.6;;;;;;;6.3;100.0;103140;;;;
2023/02/11 06:16:01;;;;;;;1.6;1.6;;;;;;;6.3;100.0;103140;;;;
2023/02/11 06:17:00;;;;;;;1.6;1.6;;;;;;;6.4;100.0;103140;;;;
2023/02/11 06:18:00;;;;;;;1.6;1.6;;;;;;;6.4;100.0;103140;;;;
2023/02/11 06:19:00;;;;;;;1.6;1.6;;;;;;;6.3;100.0;103140;;;;
2023/02/11 06:20:01;;;;;;;1.6;1.6;;;;;;;6.3;100.0;103140;;;;
2023/02/11 06:21:00;;;;;;;1.6;1.6;;;;;;;6.3;100.0;103140;;;;
2023/02/11 06:22:00;;;;;;;1.6;1.6;;;;;;;6.3;100.0;103140;;;;
2023/02/11 06:23:00;;;;;;;1.6;1.6;;;;;;;6.3;100.0;103140;;;;
2023/02/11 06:24:00;;;;;;;1.6;1.6;;;;;;;6.3;100.0;103140;;;;
2023/02/11 06:25:02;;;;;;;1.6;1.6;;;;;;;6.3;100.0;103140;;;;
2023/02/11 06:26:01;;;;;;;1.6;1.6;;;;;;;6.3;100.0;103140;;;;
2023/02/11 06:27:01;;;;;;;1.6;1.6;;;;;;;6.4;100.0;103150;;;;
2023/02/11 06:28:00;;;;;;;1.6;1.6;;;;;;;6.4;100.0;103150;;;;
2023/02/11 06:29:00;;;;;;;1.6;1.6;;;;;;;6.4;100.0;103140;;;;
2023/02/11 06:30:00;;;;;;;1.6;1.6;;;;;;;6.4;100.0;103140;;;;
2023/02/11 06:31:05;;;;;;;1.6;1.6;;;;;;;6.3;100.0;103140;;;;
2023/02/11 06:32:00;;;;;;;1.6;1.6;;;;;;;6.3;100.0;103140;;;;
2023/02/11 06:33:00;;;;;;;1.6;1.6;;;;;;;6.4;100.0;103140;;;;